Buoy 55632

sailwx.info

Track history (hours):
 
Tides and Currents Weather Stations Pressure Air Temp Water Temp Dewpoint Dewpoint Depression Visibility Wind Speed Wind Dir Waves Ship Positions

Drifting buoy 55632

Last reported at 2017-Sep-26 10:00 UTC. Time now 2017-Sep-26 11:06 UTC.
Position S 18°43' E 156°50'.

Barometer 1014.9 mb
Water temperature 24.7 ° C

Date/timePositionNaut miles runAvg speedWind from/ knotsBaromVisibWave heightAir tempDewpointWater temp
2017-Sep-26 10:00S 18°43' E 156°50'3 3.1 1014.9 24.7
2017-Sep-26 09:00S 18°44' E 156°47'5 2.5 1014.3 24.8
2017-Sep-26 07:00S 18°47' E 156°44'0 0.0 1013.3 24.8
2017-Sep-26 06:00S 18°47' E 156°44'7 7.1 1012.9 25.0
2017-Sep-26 05:00S 18°52' E 156°38'1 0.1 1013.1 24.8
2017-Sep-25 23:00S 18°52' E 156°38'1 1.2 1015.9 23.8
2017-Sep-25 22:00S 18°53' E 156°38'1 0.8 1015.8 23.7
2017-Sep-25 21:00S 18°54' E 156°37'1 1.2 1015.4 23.7
2017-Sep-25 20:00S 18°55' E 156°37'0 0.0 1014.9 23.6
2017-Sep-25 18:00S 18°55' E 156°37'5 2.3 1014.0 23.7
2017-Sep-25 16:00S 18°59' E 156°35'0 0.0 1014.2 23.8
2017-Sep-25 12:00S 18°59' E 156°35'0 0.0 1015.5 23.8
2017-Sep-25 11:00S 18°59' E 156°35'1 1.3 1015.6 23.8
2017-Sep-25 10:00S 19°01' E 156°35'0 0.0 1015.3 23.8
2017-Sep-25 09:00S 19°01' E 156°35'0 0.0 1015.0 23.9
2017-Sep-25 08:00S 19°01' E 156°35'1 0.8 1014.4 23.9
2017-Sep-25 07:00S 19°01' E 156°35'1 1.3 1014.0 23.9
2017-Sep-25 06:00S 19°02' E 156°35'1 0.8 1013.7 24.0
2017-Sep-25 05:00S 19°02' E 156°35'0 0.0 1013.7 24.1
2017-Sep-25 04:00S 19°02' E 156°35'2 2.1 1013.8 24.1
2017-Sep-25 03:00S 19°04' E 156°34'1 0.3 1014.3 24.1
2017-Sep-24 23:00S 19°05' E 156°34'1 0.8 1017.0 23.7
2017-Sep-24 22:00S 19°04' E 156°35'1 0.8 1016.9 23.6
2017-Sep-24 21:00S 19°05' E 156°34'1 0.8 1016.5 23.6
2017-Sep-24 20:00S 19°05' E 156°35'1 0.8 1015.6 23.5
2017-Sep-24 19:00S 19°06' E 156°34'0 0.0 1015.0 23.5
2017-Sep-24 18:00S 19°06' E 156°34'2 1.8 1014.4 23.6
2017-Sep-24 17:00S 19°08' E 156°34'2 1.8 1014.2 23.6
2017-Sep-24 16:00S 19°06' E 156°34'2 0.4 1014.4 23.6
2017-Sep-24 12:00S 19°08' E 156°34'1 0.6 1015.6 23.8
2017-Sep-24 11:00S 19°08' E 156°34'1 1.1 1015.7 23.8
2017-Sep-24 10:00S 19°08' E 156°35'1 0.6 1015.4 23.8
2017-Sep-24 09:00S 19°08' E 156°34'0 0.0 1014.7 23.8
2017-Sep-24 08:00S 19°08' E 156°34'0 0.0 1014.2 23.8
2017-Sep-24 07:00S 19°08' E 156°34'1 0.6 1013.9 23.8
2017-Sep-24 06:00S 19°08' E 156°34'1 0.8 1013.5 23.8
2017-Sep-24 05:00S 19°09' E 156°35'1 1.1 1013.4 23.9
2017-Sep-24 04:00S 19°09' E 156°34'0 0.0 1013.6 24.0
2017-Sep-24 03:00S 19°09' E 156°34'3 1.0 1014.2 24.0
2017-Sep-24 00:00S 19°11' E 156°31'2 1.7 1016.5 23.8
2017-Sep-23 23:00S 19°11' E 156°29'0 0.0 1017.0 23.9
2017-Sep-23 21:00S 19°11' E 156°29'1 0.6 1016.4 23.5
2017-Sep-23 20:00S 19°11' E 156°29'1 0.8 1015.7 23.5
2017-Sep-23 19:00S 19°11' E 156°29'0 0.0 1015.3 23.5
2017-Sep-23 18:00S 19°11' E 156°29'3 2.9 1015.0 23.5
2017-Sep-23 17:00S 19°13' E 156°27'0 0.0 1014.7 23.5
2017-Sep-23 16:00S 19°13' E 156°27'2 2.5 1015.0 23.5
2017-Sep-23 15:00S 19°15' E 156°25'0 0.0 1015.7 23.5
2017-Sep-23 12:00S 19°15' E 156°25'1 0.6 1016.2 23.5
2017-Sep-23 11:00S 19°15' E 156°25'1 0.6 1016.2 23.5
2017-Sep-23 10:00S 19°16' E 156°25'0 0.0 1016.0 23.5
2017-Sep-23 09:00S 19°16' E 156°25'1 0.8 1015.4 23.5
2017-Sep-23 08:00S 19°16' E 156°24'1 0.6 1015.2 23.5
2017-Sep-23 07:00S 19°17' E 156°24'0 0.0 1015.1 23.6
2017-Sep-23 06:00S 19°17' E 156°24'0 0.0 1014.8 23.7
2017-Sep-23 05:00S 19°17' E 156°24'0 0.0 1014.8 23.7
2017-Sep-23 04:00S 19°17' E 156°24'0 0.0 1014.9 23.7
2017-Sep-23 03:00S 19°17' E 156°24'1 0.2 1015.5 23.6
2017-Sep-22 23:00S 19°17' E 156°25'1 0.6 1018.1 23.6
2017-Sep-22 22:00S 19°18' E 156°25'0 0.0 1018.2 23.6
2017-Sep-22 21:00S 19°18' E 156°25'1 0.6 1017.6 23.6
2017-Sep-22 20:00S 19°19' E 156°25'1 0.4 1016.9 23.6
2017-Sep-22 18:00S 19°19' E 156°24'1 0.8 1016.1 23.7
2017-Sep-22 17:00S 19°20' E 156°23'0 0.0 1015.8 23.7
2017-Sep-22 16:00S 19°20' E 156°23'0 0.0 1016.3 23.7
2017-Sep-22 15:00S 19°20' E 156°23'3 0.9 1016.8 23.7
2017-Sep-22 12:00S 19°21' E 156°21'2 1.1 1017.6 23.8
2017-Sep-22 10:00S 19°21' E 156°19'0 0.0 1017.0 23.8
2017-Sep-22 09:00S 19°21' E 156°19'2 1.8 1016.6 23.8
2017-Sep-22 08:00S 19°22' E 156°17'1 0.8 1015.8 23.9
2017-Sep-22 07:00S 19°21' E 156°17'1 0.6 1015.5 23.9
2017-Sep-22 06:00S 19°21' E 156°17'1 0.6 1015.2 23.9
2017-Sep-22 05:00S 19°21' E 156°16'2 1.7 1015.6 23.9
2017-Sep-22 04:00S 19°21' E 156°14'0 0.0 1016.0 23.9
2017-Sep-22 00:00S 19°21' E 156°14'1 0.8 1018.3 23.8
2017-Sep-21 23:00S 19°22' E 156°15'0 0.0 1018.4 23.8
2017-Sep-21 22:00S 19°22' E 156°15'1 0.8 1018.3 23.8
2017-Sep-21 21:00S 19°22' E 156°14'1 0.8 1017.5 23.8
2017-Sep-21 20:00S 19°23' E 156°14'1 0.6 1016.4 23.8
2017-Sep-21 19:00S 19°23' E 156°13'0 0.0 1015.6 23.8
2017-Sep-21 18:00S 19°23' E 156°13'1 0.6 1015.3 23.8
2017-Sep-21 17:00S 19°23' E 156°13'2 2.5 1015.3 23.8
2017-Sep-21 16:00S 19°26' E 156°13'0 0.0 1015.6 23.8
2017-Sep-21 15:00S 19°26' E 156°13'2 0.5 1016.0 23.6
2017-Sep-21 11:00S 19°28' E 156°13'0 0.0 1016.7 23.6
2017-Sep-21 10:00S 19°28' E 156°13'0 0.0 1016.5 23.6
2017-Sep-21 09:00S 19°28' E 156°13'2 1.8 1016.1 23.6
2017-Sep-21 08:00S 19°29' E 156°13'0 0.0 1015.6 23.6
2017-Sep-21 07:00S 19°29' E 156°13'1 0.6 1015.4 23.7
2017-Sep-21 06:00S 19°30' E 156°13'1 0.6 1015.0 23.9
2017-Sep-21 05:00S 19°31' E 156°13'2 2.5 1014.8 23.9
2017-Sep-21 04:00S 19°33' E 156°13'1 0.1 1015.0 23.7
2017-Sep-20 23:00S 19°34' E 156°13'0 0.0 1017.1 23.5
2017-Sep-20 22:00S 19°34' E 156°13'0 0.0 1017.0 23.5
2017-Sep-20 21:00S 19°34' E 156°13'1 0.3 1016.5 23.5
2017-Sep-20 19:00S 19°34' E 156°13'1 0.6 1014.7 23.5
2017-Sep-20 18:00S 19°34' E 156°14'1 0.6 1014.3 23.6
2017-Sep-20 17:00S 19°35' E 156°14'0 0.0 1014.2 23.7
2017-Sep-20 16:00S 19°35' E 156°14'0 0.0 1014.5 23.8
2017-Sep-20 15:00S 19°35' E 156°14'3 1.0 1014.9 23.8
2017-Sep-20 12:00S 19°35' E 156°11'1 0.6 1016.2 23.9
2017-Sep-20 11:00S 19°35' E 156°11'1 0.6 1016.1 23.9
2017-Sep-20 10:00S 19°35' E 156°10'1 0.8 1015.7 23.9
2017-Sep-20 09:00S 19°35' E 156°10'0 0.0 1015.3 23.9
2017-Sep-20 08:00S 19°35' E 156°10'1 0.7 1014.7 23.9
2017-Sep-20 06:00S 19°37' E 156°09'0 0.0 1013.6 23.9
2017-Sep-20 05:00S 19°37' E 156°09'1 0.8 1013.7 24.0
2017-Sep-20 04:00S 19°36' E 156°10'3 0.6 1013.9 24.0
2017-Sep-19 23:00S 19°38' E 156°08'1 0.8 1017.6 23.9
2017-Sep-19 22:00S 19°39' E 156°08'1 0.8 1017.5 23.9
2017-Sep-19 21:00S 19°40' E 156°08'1 0.6 1016.8 23.9
2017-Sep-19 20:00S 19°40' E 156°08'1 0.8 1016.3 23.9
2017-Sep-19 19:00S 19°40' E 156°09'1 1.2 1015.4 23.9
2017-Sep-19 18:00S 19°41' E 156°09'0 0.0 1014.6 23.9
2017-Sep-19 17:00S 19°41' E 156°09'0 0.0 1015.4 23.9
2017-Sep-19 16:00S 19°41' E 156°09'2 2.5 1015.8 23.9
2017-Sep-19 15:00S 19°44' E 156°08'1 0.3 1016.2 23.9
2017-Sep-19 11:00S 19°45' E 156°09'1 0.6 1018.1 23.9
2017-Sep-19 10:00S 19°46' E 156°09'1 0.6 1017.9 23.9
2017-Sep-19 09:00S 19°46' E 156°09'0 0.0 1017.8 23.9
2017-Sep-19 08:00S 19°46' E 156°09'1 0.7 1017.1 24.0
2017-Sep-19 06:00S 19°47' E 156°10'1 0.6 1015.8 24.0
2017-Sep-19 05:00S 19°48' E 156°10'0 0.0 1016.0 24.0
2017-Sep-19 04:00S 19°48' E 156°10'4 0.8 1016.4 24.0
2017-Sep-18 23:00S 19°52' E 156°12'0 0.0 1020.1 23.9
2017-Sep-18 21:00S 19°52' E 156°12'1 1.3 1019.4 23.8
2017-Sep-18 20:00S 19°53' E 156°13'2 1.9 1018.7 23.8
2017-Sep-18 19:00S 19°55' E 156°13'2 1.8 1018.1 23.8
2017-Sep-18 18:00S 19°53' E 156°13'4 1.9 1017.5 23.8
2017-Sep-18 16:00S 19°56' E 156°14'0 0.0 1017.9 23.8
2017-Sep-18 12:00S 19°56' E 156°14'1 0.6 1019.8 23.8
2017-Sep-18 11:00S 19°57' E 156°14'1 1.2 1019.7 23.9
2017-Sep-18 10:00S 19°58' E 156°14'2 1.9 1019.7 23.9
2017-Sep-18 09:00S 20°00' E 156°15'0 0.0 1019.4 23.9
2017-Sep-18 08:00S 20°00' E 156°15'1 0.6 1019.0 23.9
2017-Sep-18 07:00S 20°01' E 156°15'0 0.0 1018.6 23.9
2017-Sep-18 06:00S 20°01' E 156°15'5 4.5 1018.1 23.9
2017-Sep-18 05:00S 20°05' E 156°17'0 0.0 1017.8 23.9
2017-Sep-18 04:00S 20°05' E 156°17'1 0.2 1018.2 23.9
2017-Sep-17 23:00S 20°05' E 156°17'0 0.0 1021.1 23.9
2017-Sep-17 22:00S 20°05' E 156°17'2 1.9 1020.9 23.9
2017-Sep-17 21:00S 20°07' E 156°17'1 0.3 1020.5 23.9
2017-Sep-17 16:00S 20°08' E 156°16'6 1.4 1019.1 23.8
2017-Sep-17 12:00S 20°14' E 156°14'1 0.4 1020.3 23.8
2017-Sep-17 10:00S 20°14' E 156°15'1 1.3 1020.0 23.8
2017-Sep-17 09:00S 20°16' E 156°14'0 0.0 1019.8 23.8
2017-Sep-17 08:00S 20°16' E 156°14'1 0.6 1019.4 23.8
2017-Sep-17 07:00S 20°15' E 156°14'1 0.6 1018.5 24.0
2017-Sep-17 06:00S 20°14' E 156°14'0 0.0 1018.0 24.0
2017-Sep-17 05:00S 20°14' E 156°14'0 0.0 1017.8 24.0
2017-Sep-17 04:00S 20°14' E 156°14'1 0.3 1018.0 24.0
2017-Sep-17 00:00S 20°14' E 156°16'0 0.0 1020.2 24.0
2017-Sep-16 23:00S 20°14' E 156°16'0 0.0 1020.1 24.0
2017-Sep-16 22:00S 20°14' E 156°16'1 0.3 1020.4 24.0
2017-Sep-16 20:00S 20°15' E 156°16'1 0.8 1018.7 24.0
2017-Sep-16 19:00S 20°16' E 156°16'0 0.0 1018.0 24.0
2017-Sep-16 18:00S 20°16' E 156°16'1 0.6 1017.5 24.0
2017-Sep-16 17:00S 20°16' E 156°16'2 1.9 1017.3 24.0
2017-Sep-16 16:00S 20°18' E 156°17'0 0.0 1017.7 24.0
2017-Sep-16 12:00S 20°18' E 156°17'0 0.0 1019.5 24.0
2017-Sep-16 11:00S 20°18' E 156°17'1 0.6 1019.4 24.0
2017-Sep-16 10:00S 20°19' E 156°17'   1019.5 24.0
Track history (hours):
 
Tides and Currents Weather Stations Pressure Air Temp Water Temp Dewpoint Dewpoint Depression Visibility Wind Speed Wind Dir Waves Ship Positions

Drifting buoy 55632

Last reported at 2017-Sep-26 10:00 UTC. Time now 2017-Sep-26 11:06 UTC.
Position S 18°43' E 156°50'.

Barometer 1014.9 mb
Water temperature 24.7 ° C

Date/timePositionNaut miles runAvg speedWind from/ knotsBaromVisibWave heightAir tempDewpointWater temp
2017-Sep-26 10:00S 18°43' E 156°50'3 3.1 1014.9 24.7
2017-Sep-26 09:00S 18°44' E 156°47'5 2.5 1014.3 24.8
2017-Sep-26 07:00S 18°47' E 156°44'0 0.0 1013.3 24.8
2017-Sep-26 06:00S 18°47' E 156°44'7 7.1 1012.9 25.0
2017-Sep-26 05:00S 18°52' E 156°38'1 0.1 1013.1 24.8
2017-Sep-25 23:00S 18°52' E 156°38'1 1.2 1015.9 23.8
2017-Sep-25 22:00S 18°53' E 156°38'1 0.8 1015.8 23.7
2017-Sep-25 21:00S 18°54' E 156°37'1 1.2 1015.4 23.7
2017-Sep-25 20:00S 18°55' E 156°37'0 0.0 1014.9 23.6
2017-Sep-25 18:00S 18°55' E 156°37'5 2.3 1014.0 23.7
2017-Sep-25 16:00S 18°59' E 156°35'0 0.0 1014.2 23.8
2017-Sep-25 12:00S 18°59' E 156°35'0 0.0 1015.5 23.8
2017-Sep-25 11:00S 18°59' E 156°35'1 1.3 1015.6 23.8
2017-Sep-25 10:00S 19°01' E 156°35'0 0.0 1015.3 23.8
2017-Sep-25 09:00S 19°01' E 156°35'0 0.0 1015.0 23.9
2017-Sep-25 08:00S 19°01' E 156°35'1 0.8 1014.4 23.9
2017-Sep-25 07:00S 19°01' E 156°35'1 1.3 1014.0 23.9
2017-Sep-25 06:00S 19°02' E 156°35'1 0.8 1013.7 24.0
2017-Sep-25 05:00S 19°02' E 156°35'0 0.0 1013.7 24.1
2017-Sep-25 04:00S 19°02' E 156°35'2 2.1 1013.8 24.1
2017-Sep-25 03:00S 19°04' E 156°34'1 0.3 1014.3 24.1
2017-Sep-24 23:00S 19°05' E 156°34'1 0.8 1017.0 23.7
2017-Sep-24 22:00S 19°04' E 156°35'1 0.8 1016.9 23.6
2017-Sep-24 21:00S 19°05' E 156°34'1 0.8 1016.5 23.6
2017-Sep-24 20:00S 19°05' E 156°35'1 0.8 1015.6 23.5
2017-Sep-24 19:00S 19°06' E 156°34'0 0.0 1015.0 23.5
2017-Sep-24 18:00S 19°06' E 156°34'2 1.8 1014.4 23.6
2017-Sep-24 17:00S 19°08' E 156°34'2 1.8 1014.2 23.6
2017-Sep-24 16:00S 19°06' E 156°34'2 0.4 1014.4 23.6
2017-Sep-24 12:00S 19°08' E 156°34'1 0.6 1015.6 23.8
2017-Sep-24 11:00S 19°08' E 156°34'1 1.1 1015.7 23.8
2017-Sep-24 10:00S 19°08' E 156°35'1 0.6 1015.4 23.8
2017-Sep-24 09:00S 19°08' E 156°34'0 0.0 1014.7 23.8
2017-Sep-24 08:00S 19°08' E 156°34'0 0.0 1014.2 23.8
2017-Sep-24 07:00S 19°08' E 156°34'1 0.6 1013.9 23.8
2017-Sep-24 06:00S 19°08' E 156°34'1 0.8 1013.5 23.8
2017-Sep-24 05:00S 19°09' E 156°35'1 1.1 1013.4 23.9
2017-Sep-24 04:00S 19°09' E 156°34'0 0.0 1013.6 24.0
2017-Sep-24 03:00S 19°09' E 156°34'3 1.0 1014.2 24.0
2017-Sep-24 00:00S 19°11' E 156°31'2 1.7 1016.5 23.8
2017-Sep-23 23:00S 19°11' E 156°29'0 0.0 1017.0 23.9
2017-Sep-23 21:00S 19°11' E 156°29'1 0.6 1016.4 23.5
2017-Sep-23 20:00S 19°11' E 156°29'1 0.8 1015.7 23.5
2017-Sep-23 19:00S 19°11' E 156°29'0 0.0 1015.3 23.5
2017-Sep-23 18:00S 19°11' E 156°29'3 2.9 1015.0 23.5
2017-Sep-23 17:00S 19°13' E 156°27'0 0.0 1014.7 23.5
2017-Sep-23 16:00S 19°13' E 156°27'2 2.5 1015.0 23.5
2017-Sep-23 15:00S 19°15' E 156°25'0 0.0 1015.7 23.5
2017-Sep-23 12:00S 19°15' E 156°25'1 0.6 1016.2 23.5
2017-Sep-23 11:00S 19°15' E 156°25'1 0.6 1016.2 23.5
2017-Sep-23 10:00S 19°16' E 156°25'0 0.0 1016.0 23.5
2017-Sep-23 09:00S 19°16' E 156°25'1 0.8 1015.4 23.5
2017-Sep-23 08:00S 19°16' E 156°24'1 0.6 1015.2 23.5
2017-Sep-23 07:00S 19°17' E 156°24'0 0.0 1015.1 23.6
2017-Sep-23 06:00S 19°17' E 156°24'0 0.0 1014.8 23.7
2017-Sep-23 05:00S 19°17' E 156°24'0 0.0 1014.8 23.7
2017-Sep-23 04:00S 19°17' E 156°24'0 0.0 1014.9 23.7
2017-Sep-23 03:00S 19°17' E 156°24'1 0.2 1015.5 23.6
2017-Sep-22 23:00S 19°17' E 156°25'1 0.6 1018.1 23.6
2017-Sep-22 22:00S 19°18' E 156°25'0 0.0 1018.2 23.6
2017-Sep-22 21:00S 19°18' E 156°25'1 0.6 1017.6 23.6
2017-Sep-22 20:00S 19°19' E 156°25'1 0.4 1016.9 23.6
2017-Sep-22 18:00S 19°19' E 156°24'1 0.8 1016.1 23.7
2017-Sep-22 17:00S 19°20' E 156°23'0 0.0 1015.8 23.7
2017-Sep-22 16:00S 19°20' E 156°23'0 0.0 1016.3 23.7
2017-Sep-22 15:00S 19°20' E 156°23'3 0.9 1016.8 23.7
2017-Sep-22 12:00S 19°21' E 156°21'2 1.1 1017.6 23.8
2017-Sep-22 10:00S 19°21' E 156°19'0 0.0 1017.0 23.8
2017-Sep-22 09:00S 19°21' E 156°19'2 1.8 1016.6 23.8
2017-Sep-22 08:00S 19°22' E 156°17'1 0.8 1015.8 23.9
2017-Sep-22 07:00S 19°21' E 156°17'1 0.6 1015.5 23.9
2017-Sep-22 06:00S 19°21' E 156°17'1 0.6 1015.2 23.9
2017-Sep-22 05:00S 19°21' E 156°16'2 1.7 1015.6 23.9
2017-Sep-22 04:00S 19°21' E 156°14'0 0.0 1016.0 23.9
2017-Sep-22 00:00S 19°21' E 156°14'1 0.8 1018.3 23.8
2017-Sep-21 23:00S 19°22' E 156°15'0 0.0 1018.4 23.8
2017-Sep-21 22:00S 19°22' E 156°15'1 0.8 1018.3 23.8
2017-Sep-21 21:00S 19°22' E 156°14'1 0.8 1017.5 23.8
2017-Sep-21 20:00S 19°23' E 156°14'1 0.6 1016.4 23.8
2017-Sep-21 19:00S 19°23' E 156°13'0 0.0 1015.6 23.8
2017-Sep-21 18:00S 19°23' E 156°13'1 0.6 1015.3 23.8
2017-Sep-21 17:00S 19°23' E 156°13'2 2.5 1015.3 23.8
2017-Sep-21 16:00S 19°26' E 156°13'0 0.0 1015.6 23.8
2017-Sep-21 15:00S 19°26' E 156°13'2 0.5 1016.0 23.6
2017-Sep-21 11:00S 19°28' E 156°13'0 0.0 1016.7 23.6
2017-Sep-21 10:00S 19°28' E 156°13'0 0.0 1016.5 23.6
2017-Sep-21 09:00S 19°28' E 156°13'2 1.8 1016.1 23.6
2017-Sep-21 08:00S 19°29' E 156°13'0 0.0 1015.6 23.6
2017-Sep-21 07:00S 19°29' E 156°13'1 0.6 1015.4 23.7
2017-Sep-21 06:00S 19°30' E 156°13'1 0.6 1015.0 23.9
2017-Sep-21 05:00S 19°31' E 156°13'2 2.5 1014.8 23.9
2017-Sep-21 04:00S 19°33' E 156°13'1 0.1 1015.0 23.7
2017-Sep-20 23:00S 19°34' E 156°13'0 0.0 1017.1 23.5
2017-Sep-20 22:00S 19°34' E 156°13'0 0.0 1017.0 23.5
2017-Sep-20 21:00S 19°34' E 156°13'1 0.3 1016.5 23.5
2017-Sep-20 19:00S 19°34' E 156°13'1 0.6 1014.7 23.5
2017-Sep-20 18:00S 19°34' E 156°14'1 0.6 1014.3 23.6
2017-Sep-20 17:00S 19°35' E 156°14'0 0.0 1014.2 23.7
2017-Sep-20 16:00S 19°35' E 156°14'0 0.0 1014.5 23.8
2017-Sep-20 15:00S 19°35' E 156°14'3 1.0 1014.9 23.8
2017-Sep-20 12:00S 19°35' E 156°11'1 0.6 1016.2 23.9
2017-Sep-20 11:00S 19°35' E 156°11'1 0.6 1016.1 23.9
2017-Sep-20 10:00S 19°35' E 156°10'1 0.8 1015.7 23.9
2017-Sep-20 09:00S 19°35' E 156°10'0 0.0 1015.3 23.9
2017-Sep-20 08:00S 19°35' E 156°10'1 0.7 1014.7 23.9
2017-Sep-20 06:00S 19°37' E 156°09'0 0.0 1013.6 23.9
2017-Sep-20 05:00S 19°37' E 156°09'1 0.8 1013.7 24.0
2017-Sep-20 04:00S 19°36' E 156°10'3 0.6 1013.9 24.0
2017-Sep-19 23:00S 19°38' E 156°08'1 0.8 1017.6 23.9
2017-Sep-19 22:00S 19°39' E 156°08'1 0.8 1017.5 23.9
2017-Sep-19 21:00S 19°40' E 156°08'1 0.6 1016.8 23.9
2017-Sep-19 20:00S 19°40' E 156°08'1 0.8 1016.3 23.9
2017-Sep-19 19:00S 19°40' E 156°09'1 1.2 1015.4 23.9
2017-Sep-19 18:00S 19°41' E 156°09'0 0.0 1014.6 23.9
2017-Sep-19 17:00S 19°41' E 156°09'0 0.0 1015.4 23.9
2017-Sep-19 16:00S 19°41' E 156°09'2 2.5 1015.8 23.9
2017-Sep-19 15:00S 19°44' E 156°08'1 0.3 1016.2 23.9
2017-Sep-19 11:00S 19°45' E 156°09'1 0.6 1018.1 23.9
2017-Sep-19 10:00S 19°46' E 156°09'1 0.6 1017.9 23.9
2017-Sep-19 09:00S 19°46' E 156°09'0 0.0 1017.8 23.9
2017-Sep-19 08:00S 19°46' E 156°09'1 0.7 1017.1 24.0
2017-Sep-19 06:00S 19°47' E 156°10'1 0.6 1015.8 24.0
2017-Sep-19 05:00S 19°48' E 156°10'0 0.0 1016.0 24.0
2017-Sep-19 04:00S 19°48' E 156°10'4 0.8 1016.4 24.0
2017-Sep-18 23:00S 19°52' E 156°12'0 0.0 1020.1 23.9
2017-Sep-18 21:00S 19°52' E 156°12'1 1.3 1019.4 23.8
2017-Sep-18 20:00S 19°53' E 156°13'2 1.9 1018.7 23.8
2017-Sep-18 19:00S 19°55' E 156°13'2 1.8 1018.1 23.8
2017-Sep-18 18:00S 19°53' E 156°13'4 1.9 1017.5 23.8
2017-Sep-18 16:00S 19°56' E 156°14'0 0.0 1017.9 23.8
2017-Sep-18 12:00S 19°56' E 156°14'1 0.6 1019.8 23.8
2017-Sep-18 11:00S 19°57' E 156°14'1 1.2 1019.7 23.9
2017-Sep-18 10:00S 19°58' E 156°14'2 1.9 1019.7 23.9
2017-Sep-18 09:00S 20°00' E 156°15'0 0.0 1019.4 23.9
2017-Sep-18 08:00S 20°00' E 156°15'1 0.6 1019.0 23.9
2017-Sep-18 07:00S 20°01' E 156°15'0 0.0 1018.6 23.9
2017-Sep-18 06:00S 20°01' E 156°15'5 4.5 1018.1 23.9
2017-Sep-18 05:00S 20°05' E 156°17'0 0.0 1017.8 23.9
2017-Sep-18 04:00S 20°05' E 156°17'1 0.2 1018.2 23.9
2017-Sep-17 23:00S 20°05' E 156°17'0 0.0 1021.1 23.9
2017-Sep-17 22:00S 20°05' E 156°17'2 1.9 1020.9 23.9
2017-Sep-17 21:00S 20°07' E 156°17'1 0.3 1020.5 23.9
2017-Sep-17 16:00S 20°08' E 156°16'6 1.4 1019.1 23.8
2017-Sep-17 12:00S 20°14' E 156°14'1 0.4 1020.3 23.8
2017-Sep-17 10:00S 20°14' E 156°15'1 1.3 1020.0 23.8
2017-Sep-17 09:00S 20°16' E 156°14'0 0.0 1019.8 23.8
2017-Sep-17 08:00S 20°16' E 156°14'1 0.6 1019.4 23.8
2017-Sep-17 07:00S 20°15' E 156°14'1 0.6 1018.5 24.0
2017-Sep-17 06:00S 20°14' E 156°14'0 0.0 1018.0 24.0
2017-Sep-17 05:00S 20°14' E 156°14'0 0.0 1017.8 24.0
2017-Sep-17 04:00S 20°14' E 156°14'1 0.3 1018.0 24.0
2017-Sep-17 00:00S 20°14' E 156°16'0 0.0 1020.2 24.0
2017-Sep-16 23:00S 20°14' E 156°16'0 0.0 1020.1 24.0
2017-Sep-16 22:00S 20°14' E 156°16'1 0.3 1020.4 24.0
2017-Sep-16 20:00S 20°15' E 156°16'1 0.8 1018.7 24.0
2017-Sep-16 19:00S 20°16' E 156°16'0 0.0 1018.0 24.0
2017-Sep-16 18:00S 20°16' E 156°16'1 0.6 1017.5 24.0
2017-Sep-16 17:00S 20°16' E 156°16'2 1.9 1017.3 24.0
2017-Sep-16 16:00S 20°18' E 156°17'0 0.0 1017.7 24.0
2017-Sep-16 12:00S 20°18' E 156°17'0 0.0 1019.5 24.0
2017-Sep-16 11:00S 20°18' E 156°17'1 0.6 1019.4 24.0
2017-Sep-16 10:00S 20°19' E 156°17'   1019.5 24.0

Dump ship's entire track history